Time;durP1;ratioP1;P1;durP2;ratioP2;P2;SDS_P1;SDS_P2;PMS_P1;PMS_P2;Temp;Humidity;BMP_temperature;BMP_pressure;BME280_temperature;BME280_humidity;BME280_pressure;Samples;Min_cycle;Max_cycle;Signal;HPM_P1;HPM_P2
2022/11/27 00:02:17;;;;;;;;;31.60;29.40;;;;;10.09;54.09;100054.91;6170272;28;98817;-62
2022/11/27 00:05:21;;;;;;;;;24.20;21.00;;;;;10.10;54.36;100050.34;6183044;28;97191;-62
2022/11/27 00:08:25;;;;;;;;;29.00;26.60;;;;;10.11;54.90;100058.25;6189398;28;96548;-62
2022/11/27 00:11:30;;;;;;;;;34.80;31.80;;;;;10.11;54.59;100055.56;6189917;28;96375;-62
2022/11/27 00:14:33;;;;;;;;;24.75;23.75;;;;;10.11;54.64;100060.09;6189599;28;96484;-62
2022/11/27 00:17:38;;;;;;;;;37.60;32.00;;;;;10.12;54.69;100051.81;6189710;28;96435;-62
2022/11/27 00:20:41;;;;;;;;;35.60;29.60;;;;;10.08;54.96;100047.84;6189146;28;96282;-61
2022/11/27 00:23:44;;;;;;;;;35.40;32.20;;;;;10.15;54.63;100048.75;6172610;28;96676;-62
2022/11/27 00:26:48;;;;;;;;;28.00;26.60;;;;;10.17;54.22;100045.88;6189740;28;96872;-62
2022/11/27 00:29:52;;;;;;;;;33.40;30.40;;;;;10.13;54.43;100039.16;6170095;28;97218;-62
2022/11/27 00:32:56;;;;;;;;;30.00;29.00;;;;;10.08;54.12;100052.38;6170860;28;96689;-62
2022/11/27 00:36:02;;;;;;;;;35.60;31.00;;;;;9.94;53.84;100041.47;6185691;28;96528;-63
2022/11/27 00:39:06;;;;;;;;;29.60;26.60;;;;;10.05;54.12;100066.25;6177446;28;96923;-62
2022/11/27 00:42:09;;;;;;;;;26.33;24.33;;;;;10.06;54.09;100051.75;6189606;28;96381;-62
2022/11/27 00:45:12;;;;;;;;;35.50;30.00;;;;;9.99;54.11;100046.28;6189053;28;96362;-62
2022/11/27 00:48:17;;;;;;;;;34.40;30.80;;;;;9.98;54.60;100042.75;6170430;28;96473;-62
2022/11/27 00:51:22;;;;;;;;;26.50;24.75;;;;;10.01;54.46;100044.25;6189165;28;96351;-62
2022/11/27 00:54:26;;;;;;;;;28.75;27.75;;;;;9.94;53.72;100049.53;6189249;28;96846;-62
2022/11/27 00:57:29;;;;;;;;;33.33;30.33;;;;;9.95;54.05;100035.06;6188208;28;96819;-61
2022/11/27 01:00:32;;;;;;;;;34.00;30.00;;;;;9.99;53.83;100041.72;6172853;28;96501;-61
2022/11/27 01:03:37;;;;;;;;;33.75;30.50;;;;;10.02;53.82;100040.50;6188518;28;96723;-61
2022/11/27 01:06:41;;;;;;;;;36.00;32.00;;;;;10.02;53.85;100044.03;6173178;28;96500;-61
2022/11/27 01:09:45;;;;;;;;;34.20;31.00;;;;;10.00;53.92;100032.63;6188719;28;96386;-62
2022/11/27 01:12:48;;;;;;;;;29.60;27.60;;;;;10.06;53.69;100038.28;6162743;28;96245;-62
2022/11/27 01:15:59;;;;;;;;;32.20;30.00;;;;;10.05;53.56;100050.91;6166224;28;96885;-62
2022/11/27 01:19:04;;;;;;;;;35.75;32.75;;;;;10.05;53.29;100048.22;6188757;28;97599;-62
2022/11/27 01:22:08;;;;;;;;;32.00;30.00;;;;;9.99;53.46;100038.19;6177935;28;96738;-62
2022/11/27 01:25:11;;;;;;;;;36.75;32.00;;;;;9.99;53.80;100040.91;6178244;28;96363;-62
2022/11/27 01:28:14;;;;;;;;;30.00;28.75;;;;;10.00;53.83;100039.88;6171863;28;96511;-61
2022/11/27 01:31:21;;;;;;;;;29.00;26.00;;;;;10.02;54.31;100035.13;6188384;28;96462;-61
2022/11/27 01:34:26;;;;;;;;;34.80;32.00;;;;;10.00;53.69;100031.78;6171030;28;96317;-61
2022/11/27 01:37:29;;;;;;;;;32.40;29.40;;;;;9.98;53.95;100028.44;6187738;28;96393;-62
2022/11/27 01:40:32;;;;;;;;;29.00;25.75;;;;;9.96;53.74;100030.50;6187847;28;96437;-62
2022/11/27 01:43:38;;;;;;;;;27.40;25.00;;;;;9.89;53.71;100024.19;6188165;28;96398;-62
2022/11/27 01:46:46;;;;;;;;;31.00;29.40;;;;;9.90;53.82;100026.72;6188495;28;96873;-62
2022/11/27 01:49:55;;;;;;;;;27.50;26.00;;;;;9.87;53.78;100026.25;6188162;28;96353;-62
2022/11/27 01:53:05;;;;;;;;;28.00;26.00;;;;;9.89;53.80;100029.59;6169335;28;97301;-62
2022/11/27 01:56:09;;;;;;;;;29.00;27.40;;;;;9.88;53.67;100027.91;6171142;28;96979;-62
2022/11/27 01:59:13;;;;;;;;;29.00;27.50;;;;;9.86;54.13;100025.44;6171424;28;96255;-62
2022/11/27 02:02:16;;;;;;;;;37.20;32.60;;;;;9.86;53.65;100035.34;6187938;28;97737;-62
2022/11/27 02:05:24;;;;;;;;;29.00;27.60;;;;;9.86;54.17;100033.50;6187539;28;96341;-61
2022/11/27 02:08:28;;;;;;;;;22.40;21.00;;;;;9.85;53.66;100036.38;6187983;28;96567;-62
2022/11/27 02:11:39;;;;;;;;;25.40;23.60;;;;;9.79;54.76;100039.81;6187057;28;96425;-62
2022/11/27 02:14:49;;;;;;;;;28.60;25.60;;;;;9.78;55.70;100040.84;6172572;28;96391;-62
2022/11/27 02:18:00;;;;;;;;;22.50;21.00;;;;;9.73;56.20;100036.00;6187509;28;97530;-62
2022/11/27 02:21:11;;;;;;;;;27.60;26.60;;;;;9.58;56.46;100017.19;6187652;28;96388;-63
2022/11/27 02:24:42;;;;;;;;;31.40;29.60;;;;;9.71;56.61;100034.53;6187083;28;96367;-62
2022/11/27 02:28:12;;;;;;;;;23.00;21.00;;;;;9.73;56.23;100044.09;6185148;28;96262;-61
2022/11/27 02:31:25;;;;;;;;;28.00;25.00;;;;;9.75;56.26;100044.75;6176759;28;96394;-62
2022/11/27 02:34:36;;;;;;;;;31.60;28.20;;;;;9.72;56.05;100039.75;6187460;28;96585;-61
2022/11/27 02:37:46;;;;;;;;;27.25;24.25;;;;;9.67;56.07;100044.03;6187366;28;96282;-62
2022/11/27 02:40:54;;;;;;;;;27.40;26.40;;;;;9.65;55.98;100040.69;6187205;28;96385;-61
2022/11/27 02:44:00;;;;;;;;;33.00;30.00;;;;;9.66;56.09;100039.66;6183727;28;97082;-61
2022/11/27 02:47:05;;;;;;;;;24.40;22.80;;;;;9.62;56.01;100051.84;6174524;28;97254;-62
2022/11/27 02:50:12;;;;;;;;;29.80;27.40;;;;;9.61;56.13;100051.00;6183622;28;96372;-62
2022/11/27 02:53:20;;;;;;;;;28.00;26.00;;;;;9.58;56.70;100054.88;6187062;28;96367;-62
2022/11/27 02:56:27;;;;;;;;;25.50;25.50;;;;;9.62;56.62;100058.06;6186750;28;96352;-62
2022/11/27 02:59:32;;;;;;;;;24.00;22.00;;;;;9.66;56.66;100059.34;6186384;28;97288;-62
2022/11/27 03:02:44;;;;;;;;;25.00;23.25;;;;;9.64;56.81;100056.00;6159215;28;98961;-62
2022/11/27 03:05:52;;;;;;;;;27.00;25.40;;;;;9.62;56.99;100054.53;6179629;28;96455;-62
2022/11/27 03:08:59;;;;;;;;;24.50;24.00;;;;;9.63;57.10;100057.00;6186427;28;96286;-63
2022/11/27 03:12:04;;;;;;;;;28.60;27.40;;;;;9.65;57.05;100054.13;6186535;28;96837;-61
2022/11/27 03:15:08;;;;;;;;;29.60;27.60;;;;;9.67;57.57;100047.56;6185950;28;96962;-62
2022/11/27 03:18:20;;;;;;;;;26.50;24.75;;;;;9.70;57.42;100062.50;6178717;28;97450;-62
2022/11/27 03:21:32;;;;;;;;;32.00;28.60;;;;;9.70;57.48;100062.50;6177043;28;96504;-63
2022/11/27 03:24:36;;;;;;;;;31.40;28.40;;;;;9.74;57.40;100061.09;6175008;28;96329;-61
2022/11/27 03:27:46;;;;;;;;;36.40;33.00;;;;;9.75;57.33;100069.00;6184784;28;96585;-62
2022/11/27 03:30:49;;;;;;;;;42.40;34.40;;;;;9.79;57.50;100053.28;6172386;28;96368;-62
2022/11/27 03:33:54;;;;;;;;;34.00;29.50;;;;;9.80;57.64;100063.88;6186053;28;96385;-62
2022/11/27 03:36:58;;;;;;;;;35.60;31.60;;;;;9.83;57.61;100070.72;6177605;28;96302;-62
2022/11/27 03:40:02;;;;;;;;;32.00;29.00;;;;;9.83;57.64;100073.44;6186331;28;96384;-62
2022/11/27 03:43:13;;;;;;;;;30.60;28.80;;;;;9.83;57.60;100063.50;6178399;28;96957;-61
2022/11/27 03:46:27;;;;;;;;;34.50;31.50;;;;;9.82;57.17;100064.50;6190628;28;96241;-62
2022/11/27 03:49:44;;;;;;;;;28.00;26.00;;;;;9.86;56.61;100068.53;6164227;28;97312;-62
2022/11/27 03:52:57;;;;;;;;;24.00;22.00;;;;;9.87;56.32;100061.28;6187352;28;96768;-61
2022/11/27 03:56:06;;;;;;;;;30.60;29.60;;;;;9.85;55.94;100068.69;6186004;28;96244;-61
2022/11/27 03:59:19;;;;;;;;;35.60;30.20;;;;;9.83;56.11;100065.34;6179028;28;96884;-62
2022/11/27 04:02:31;;;;;;;;;30.00;28.00;;;;;9.84;56.80;100067.03;6189842;28;96365;-61
2022/11/27 04:05:35;;;;;;;;;26.00;21.20;;;;;9.80;56.79;100063.88;6190147;28;96665;-62
2022/11/27 04:08:40;;;;;;;;;37.00;33.00;;;;;9.78;57.04;100068.59;6189335;28;97201;-62
2022/11/27 04:11:43;;;;;;;;;33.50;30.00;;;;;9.73;57.31;100064.81;6173096;28;96636;-62
2022/11/27 04:14:46;;;;;;;;;32.60;29.60;;;;;9.73;57.36;100064.81;6189653;28;96324;-62
2022/11/27 04:17:49;;;;;;;;;32.60;30.00;;;;;9.71;57.69;100072.25;6189673;28;96413;-62
2022/11/27 04:20:54;;;;;;;;;36.40;33.00;;;;;9.70;57.58;100070.56;6190028;28;96374;-62
2022/11/27 04:23:57;;;;;;;;;30.00;29.00;;;;;9.64;57.99;100069.47;6189849;28;96204;-62
2022/11/27 04:27:00;;;;;;;;;34.40;29.80;;;;;9.58;57.71;100068.34;6189377;28;96362;-62
2022/11/27 04:30:05;;;;;;;;;32.40;30.00;;;;;9.53;58.40;100072.63;6188771;28;96356;-62
2022/11/27 04:33:08;;;;;;;;;31.50;30.00;;;;;9.46;59.10;100079.78;6185265;28;97078;-62
2022/11/27 04:36:12;;;;;;;;;35.00;30.50;;;;;9.44;59.59;100079.13;6182748;28;96221;-62
2022/11/27 04:39:16;;;;;;;;;32.50;29.50;;;;;9.47;59.19;100081.44;6178109;28;96341;-62
2022/11/27 04:42:19;;;;;;;;;29.00;26.00;;;;;9.41;59.84;100088.41;6180561;28;99036;-62
2022/11/27 04:45:23;;;;;;;;;36.50;32.00;;;;;9.43;59.72;100074.78;6182929;28;96972;-62
2022/11/27 04:48:26;;;;;;;;;30.20;26.20;;;;;9.43;59.84;100072.09;6188582;28;96259;-62
2022/11/27 04:51:31;;;;;;;;;36.60;32.00;;;;;9.41;59.77;100066.88;6186181;28;96361;-62
2022/11/27 04:54:34;;;;;;;;;27.40;26.00;;;;;9.36;60.05;100063.91;6179618;28;96405;-62
2022/11/27 04:57:38;;;;;;;;;28.00;25.00;;;;;9.36;60.05;100065.75;6187223;28;96606;-62
2022/11/27 05:00:41;;;;;;;;;26.33;26.33;;;;;9.32;60.21;100069.84;6189822;28;97421;-62
2022/11/27 05:03:47;;;;;;;;;31.00;28.00;;;;;9.30;60.39;100058.41;6185305;28;96954;-62
2022/11/27 05:06:51;;;;;;;;;36.40;32.00;;;;;9.22;60.14;100051.28;6171015;28;96678;-62
2022/11/27 05:09:55;;;;;;;;;32.00;28.40;;;;;9.26;60.35;100057.97;6194760;28;96229;-62
2022/11/27 05:12:58;;;;;;;;;36.00;32.00;;;;;9.26;60.70;100054.44;6187019;28;96459;-62
2022/11/27 05:16:02;;;;;;;;;35.40;33.00;;;;;9.18;60.21;100052.69;6187875;28;96443;-62
2022/11/27 05:19:05;;;;;;;;;37.60;33.00;;;;;9.06;60.76;100056.81;6191388;28;97293;-62
2022/11/27 05:22:10;;;;;;;;;39.60;33.00;;;;;9.11;61.08;100068.72;6188643;28;97803;-62
2022/11/27 05:25:13;;;;;;;;;35.00;30.40;;;;;9.18;60.95;100059.91;6193196;28;97349;-62
2022/11/27 05:28:17;;;;;;;;;28.25;27.25;;;;;9.25;61.06;100058.97;6188968;28;96558;-62
2022/11/27 05:31:27;;;;;;;;;32.00;29.00;;;;;9.32;60.62;100062.59;6192907;28;97974;-61
2022/11/27 05:34:30;;;;;;;;;38.50;32.75;;;;;9.37;60.19;100065.59;6184662;28;96841;-62
2022/11/27 05:37:35;;;;;;;;;29.20;26.60;;;;;9.37;60.08;100072.81;6190854;28;96504;-62
2022/11/27 05:40:39;;;;;;;;;30.00;25.00;;;;;9.36;60.15;100076.53;6190410;28;97651;-63
2022/11/27 05:43:42;;;;;;;;;34.80;30.80;;;;;9.26;60.02;100068.72;6194238;28;96400;-61
2022/11/27 05:46:45;;;;;;;;;38.00;32.33;;;;;9.42;59.83;100086.56;6196073;28;96852;-62
2022/11/27 05:49:49;;;;;;;;;35.50;31.50;;;;;9.41;59.80;100091.09;6176500;28;96866;-61
2022/11/27 05:52:54;;;;;;;;;37.80;32.20;;;;;9.45;59.80;100088.88;6198713;28;96876;-61
2022/11/27 05:56:01;;;;;;;;;41.60;35.00;;;;;9.43;59.64;100082.84;6190118;28;96998;-61
2022/11/27 05:59:05;;;;;;;;;30.00;28.75;;;;;9.40;59.67;100078.66;6191022;28;96839;-62
2022/11/27 06:02:08;;;;;;;;;37.40;32.80;;;;;9.41;59.77;100082.19;6192812;28;96432;-61
2022/11/27 06:05:17;;;;;;;;;39.80;32.40;;;;;9.41;59.77;100076.81;6192316;28;96400;-62
2022/11/27 06:08:22;;;;;;;;;34.60;30.00;;;;;9.34;59.59;100076.69;6203107;28;96413;-61
2022/11/27 06:11:25;;;;;;;;;34.00;30.00;;;;;9.27;59.46;100069.56;6200329;28;96288;-61
2022/11/27 06:14:30;;;;;;;;;35.00;28.60;;;;;9.29;59.93;100065.66;6193284;28;96439;-62
2022/11/27 06:17:33;;;;;;;;;33.00;30.20;;;;;9.26;60.42;100068.72;6186383;28;96370;-61
2022/11/27 06:20:37;;;;;;;;;27.60;24.60;;;;;9.21;60.57;100071.13;6182065;28;96363;-61
2022/11/27 06:23:48;;;;;;;;;29.25;26.25;;;;;9.14;60.84;100064.81;6166298;28;97704;-61
2022/11/27 06:26:51;;;;;;;;;35.20;31.80;;;;;8.96;60.90;100043.63;6167140;28;96560;-61
2022/11/27 06:29:55;;;;;;;;;37.00;33.50;;;;;9.20;61.06;100077.53;6184225;28;96360;-61
2022/11/27 06:32:58;;;;;;;;;37.25;33.00;;;;;9.29;60.99;100078.28;6181054;28;96622;-62
2022/11/27 06:36:02;;;;;;;;;34.00;30.20;;;;;9.34;60.99;100076.69;6166343;28;97127;-61
2022/11/27 06:39:08;;;;;;;;;37.40;32.40;;;;;9.39;60.95;100066.22;6184558;28;97139;-61
2022/11/27 06:42:11;;;;;;;;;35.20;30.00;;;;;9.44;60.67;100071.03;6183596;28;97088;-61
2022/11/27 06:45:15;;;;;;;;;34.80;30.40;;;;;9.43;60.27;100072.88;6182309;28;97577;-61
2022/11/27 06:48:18;;;;;;;;;34.20;31.60;;;;;9.38;60.34;100056.47;6181985;28;96945;-62
2022/11/27 06:51:23;;;;;;;;;35.40;30.00;;;;;9.45;60.10;100067.34;6183229;28;97603;-61
2022/11/27 06:54:27;;;;;;;;;32.00;29.00;;;;;9.41;60.24;100064.19;6183870;28;96463;-63
2022/11/27 06:57:31;;;;;;;;;31.60;27.00;;;;;9.40;60.28;100062.50;6184048;28;96608;-62
2022/11/27 07:00:34;;;;;;;;;34.00;30.00;;;;;9.36;60.32;100058.53;6183218;28;96914;-61
2022/11/27 07:03:37;;;;;;;;;26.20;25.00;;;;;9.27;60.50;100061.50;6180740;28;96472;-62
2022/11/27 07:06:42;;;;;;;;;26.80;23.40;;;;;9.26;60.59;100062.50;6181575;28;96984;-61
2022/11/27 07:09:47;;;;;;;;;30.00;27.40;;;;;9.30;60.76;100069.19;6181502;28;97259;-62
2022/11/27 07:12:50;;;;;;;;;29.20;27.60;;;;;9.33;60.29;100063.44;6185334;28;96297;-62
2022/11/27 07:15:53;;;;;;;;;20.60;19.60;;;;;9.37;60.09;100054.81;6182419;28;96570;-62
2022/11/27 07:18:59;;;;;;;;;27.40;25.60;;;;;9.46;60.13;100056.38;6166468;28;98887;-62
2022/11/27 07:22:03;;;;;;;;;27.00;25.00;;;;;9.37;60.22;100054.81;6199242;28;96733;-62
2022/11/27 07:25:08;;;;;;;;;27.40;26.40;;;;;9.47;60.11;100066.13;6202139;28;96595;-62
2022/11/27 07:28:12;;;;;;;;;27.00;24.25;;;;;9.44;60.02;100044.97;6189175;28;96451;-62
2022/11/27 07:31:23;;;;;;;;;30.20;29.20;;;;;9.66;60.07;100061.19;6188081;28;96540;-62
2022/11/27 07:34:26;;;;;;;;;23.50;22.50;;;;;9.72;59.51;100063.16;6182483;28;96630;-61
2022/11/27 07:37:30;;;;;;;;;29.20;25.20;;;;;9.80;59.15;100068.44;6186008;28;96329;-62
2022/11/27 07:40:35;;;;;;;;;24.80;24.00;;;;;9.87;59.30;100072.06;6184077;28;96963;-62
2022/11/27 07:43:39;;;;;;;;;26.60;24.60;;;;;9.95;58.97;100066.53;6185562;28;97078;-62
2022/11/27 07:46:42;;;;;;;;;20.00;16.00;;;;;10.04;58.08;100062.72;6182801;28;96712;-62
2022/11/27 07:49:46;;;;;;;;;26.40;25.00;;;;;10.16;58.29;100057.72;6185406;28;96952;-62
2022/11/27 07:52:49;;;;;;;;;24.00;23.00;;;;;10.21;57.14;100066.06;6175449;28;98720;-62
2022/11/27 07:55:54;;;;;;;;;25.50;25.00;;;;;10.18;56.99;100067.25;6187045;28;96994;-63
2022/11/27 07:58:58;;;;;;;;;21.40;20.00;;;;;10.13;56.86;100066.97;6186280;28;97863;-62
2022/11/27 08:02:01;;;;;;;;;22.00;22.00;;;;;10.17;57.24;100062.03;6173968;28;97176;-62
2022/11/27 08:05:05;;;;;;;;;22.00;20.60;;;;;10.21;57.11;100066.91;6185850;28;96625;-62
2022/11/27 08:08:14;;;;;;;;;25.60;21.00;;;;;10.19;56.65;100068.09;6186527;28;97536;-62
2022/11/27 08:11:22;;;;;;;;;21.60;20.60;;;;;10.14;56.93;100074.03;6189823;28;96379;-62
2022/11/27 08:14:26;;;;;;;;;17.00;16.40;;;;;10.23;57.19;100078.31;6179858;28;96998;-62
2022/11/27 08:17:29;;;;;;;;;26.00;24.00;;;;;10.30;57.01;100078.38;6153754;28;96677;-62
2022/11/27 08:20:32;;;;;;;;;18.50;17.25;;;;;10.37;57.00;100077.41;6189604;28;96485;-62
2022/11/27 08:23:35;;;;;;;;;21.40;19.40;;;;;10.45;56.33;100071.09;6186818;28;98344;-62
2022/11/27 08:26:40;;;;;;;;;27.50;23.00;;;;;10.52;56.20;100071.13;6166364;28;96430;-62
2022/11/27 08:29:44;;;;;;;;;29.40;26.40;;;;;10.59;56.43;100074.75;6171090;28;97837;-62
2022/11/27 08:32:47;;;;;;;;;22.00;21.00;;;;;10.68;56.30;100076.28;6188588;28;97021;-62
2022/11/27 08:35:51;;;;;;;;;24.60;22.00;;;;;10.62;55.06;100066.25;6186838;28;96358;-63
2022/11/27 08:38:55;;;;;;;;;26.00;24.75;;;;;10.63;54.63;100055.28;6183454;28;96341;-62
2022/11/27 08:42:00;;;;;;;;;27.00;24.00;;;;;10.70;55.40;100058.03;6160595;28;96674;-62
2022/11/27 08:45:04;;;;;;;;;20.00;16.00;;;;;10.78;54.88;100066.81;6173182;28;96468;-62
2022/11/27 08:48:07;;;;;;;;;24.50;23.50;;;;;10.82;53.74;100057.31;6166114;28;96448;-62
2022/11/27 08:51:12;;;;;;;;;28.00;26.50;;;;;10.77;53.77;100040.88;6170969;28;96902;-62
2022/11/27 08:54:16;;;;;;;;;27.80;26.80;;;;;10.87;52.51;100059.41;6166943;28;97138;-62
2022/11/27 08:57:21;;;;;;;;;21.50;20.25;;;;;10.91;53.10;100059.84;6158846;28;96617;-62
2022/11/27 09:00:24;;;;;;;;;25.40;23.00;;;;;10.89;52.74;100059.22;6176236;28;96899;-62
2022/11/27 09:03:30;;;;;;;;;23.20;21.80;;;;;10.94;53.19;100062.19;6174970;28;96529;-63
2022/11/27 09:06:35;;;;;;;;;26.60;24.60;;;;;11.02;53.93;100070.97;6161959;28;97822;-64
2022/11/27 09:09:38;;;;;;;;;26.40;25.00;;;;;11.08;53.63;100069.34;6186819;28;96384;-66
2022/11/27 09:12:44;;;;;;;;;24.00;20.60;;;;;11.14;53.17;100069.38;6181374;28;96624;-64
2022/11/27 09:15:47;;;;;;;;;26.40;25.40;;;;;11.10;53.06;100054.63;6174485;28;96171;-64
2022/11/27 09:18:53;;;;;;;;;20.40;17.00;;;;;11.18;53.48;100062.59;6170698;28;97502;-65
2022/11/27 09:21:56;;;;;;;;;27.80;24.80;;;;;11.17;52.52;100065.47;6156780;28;98526;-65
2022/11/27 09:24:59;;;;;;;;;21.20;20.20;;;;;11.15;52.41;100065.66;6179897;28;96863;-64
2022/11/27 09:28:04;;;;;;;;;19.00;17.00;;;;;11.09;52.11;100061.03;6169743;28;96600;-64
2022/11/27 09:31:10;;;;;;;;;20.00;18.75;;;;;11.12;52.89;100074.16;6151076;28;96889;-64
2022/11/27 09:34:14;;;;;;;;;23.40;22.40;;;;;11.16;52.82;100061.94;6164713;28;96303;-65
2022/11/27 09:37:17;;;;;;;;;22.33;21.33;;;;;11.24;53.18;100064.47;6165738;28;97746;-64
2022/11/27 09:40:21;;;;;;;;;22.00;21.00;;;;;11.32;52.58;100070.75;6182331;28;96341;-65
2022/11/27 09:43:31;;;;;;;;;19.50;19.00;;;;;11.37;52.04;100073.69;6186945;28;96451;-63
2022/11/27 09:46:37;;;;;;;;;26.00;23.40;;;;;11.40;51.39;100070.59;6179348;28;96882;-63
2022/11/27 09:49:46;;;;;;;;;23.40;21.40;;;;;11.41;50.62;100064.16;6166842;28;97019;-63
2022/11/27 09:52:54;;;;;;;;;14.00;13.00;;;;;11.42;50.82;100065.84;6186171;28;96389;-64
2022/11/27 09:56:02;;;;;;;;;22.00;20.00;;;;;11.38;50.43;100060.00;6183828;28;97143;-63
2022/11/27 09:59:15;;;;;;;;;23.00;22.00;;;;;11.40;50.83;100057.09;6184113;28;96988;-64
2022/11/27 10:02:27;;;;;;;;;21.25;20.25;;;;;11.42;50.36;100052.34;6184122;28;96990;-63
2022/11/27 10:05:42;;;;;;;;;10.20;10.20;;;;;11.38;49.96;100051.06;6183033;28;96654;-63
2022/11/27 10:08:52;;;;;;;;;19.00;18.00;;;;;11.32;50.26;100041.06;6184193;28;96515;-63
2022/11/27 10:12:06;;;;;;;;;15.00;13.60;;;;;11.38;50.06;100051.06;6182153;28;97195;-63
2022/11/27 10:15:17;;;;;;;;;24.00;23.00;;;;;11.27;49.95;100022.75;6184951;28;96673;-64
2022/11/27 10:18:29;;;;;;;;;23.40;20.80;;;;;11.38;50.53;100029.47;6184404;28;96729;-64
2022/11/27 10:21:47;;;;;;;;;24.20;23.00;;;;;11.43;50.33;100035.94;6185915;28;96400;-63
2022/11/27 10:25:02;;;;;;;;;19.60;18.60;;;;;11.47;49.64;100039.06;6164298;28;100043;-64
2022/11/27 10:28:21;;;;;;;;;16.00;15.00;;;;;11.47;49.75;100036.38;6161669;28;96768;-64
2022/11/27 10:31:37;;;;;;;;;22.00;21.00;;;;;11.40;49.48;100028.22;6185532;28;96407;-64
2022/11/27 10:34:44;;;;;;;;;16.40;14.00;;;;;11.24;50.11;100015.03;6176247;28;96878;-64
2022/11/27 10:37:52;;;;;;;;;28.60;27.00;;;;;11.25;51.09;100027.50;6179378;28;96333;-63
2022/11/27 10:41:07;;;;;;;;;26.60;25.40;;;;;11.31;52.40;100024.03;6177062;28;96953;-64
2022/11/27 10:44:28;;;;;;;;;32.80;30.00;;;;;11.17;51.76;100008.78;6172487;28;97356;-64
2022/11/27 10:47:33;;;;;;;;;32.40;28.80;;;;;11.21;52.16;100018.16;6168043;28;96449;-64
2022/11/27 10:50:37;;;;;;;;;35.80;30.60;;;;;11.19;52.38;100012.13;6185786;28;96874;-65
2022/11/27 10:53:43;;;;;;;;;30.00;28.00;;;;;11.28;52.39;100019.03;6185098;28;96695;-64
2022/11/27 10:57:02;;;;;;;;;25.25;22.25;;;;;11.28;51.81;100008.25;6149412;28;98528;-64
2022/11/27 11:00:12;;;;;;;;;30.40;28.00;;;;;11.27;51.59;100011.97;6185050;28;97212;-64
2022/11/27 11:03:17;;;;;;;;;20.50;19.50;;;;;11.27;51.77;100014.66;6183946;28;96317;-65
2022/11/27 11:06:23;;;;;;;;;31.25;29.25;;;;;11.26;51.78;100000.31;6175906;28;96469;-64
2022/11/27 11:09:30;;;;;;;;;32.50;30.50;;;;;11.24;51.41;100001.53;6184318;28;96639;-63
2022/11/27 11:12:34;;;;;;;;;24.20;20.20;;;;;11.27;51.27;99999.31;6183005;28;97106;-64
2022/11/27 11:15:54;;;;;;;;;24.33;21.00;;;;;11.29;51.43;99989.13;6198290;28;98147;-63
2022/11/27 11:19:00;;;;;;;;;27.40;27.40;;;;;11.36;51.61;99986.47;6188725;28;97209;-64
2022/11/27 11:22:12;;;;;;;;;24.80;20.20;;;;;11.39;51.45;99988.75;6191001;28;97782;-63
2022/11/27 11:25:18;;;;;;;;;30.00;27.00;;;;;11.45;51.64;99993.38;6199450;28;96376;-63
2022/11/27 11:28:22;;;;;;;;;32.75;30.00;;;;;11.50;52.00;99987.34;6192870;28;97479;-64
2022/11/27 11:31:31;;;;;;;;;24.40;23.20;;;;;11.50;52.05;99990.06;6186490;28;96541;-63
2022/11/27 11:34:41;;;;;;;;;27.60;26.60;;;;;11.63;51.74;99980.13;6179604;28;96663;-63
2022/11/27 11:37:46;;;;;;;;;27.00;25.40;;;;;11.34;51.53;99926.41;6182817;28;96387;-63
2022/11/27 11:40:59;;;;;;;;;31.80;28.40;;;;;11.67;51.48;99976.03;6181226;28;96468;-64
2022/11/27 11:44:03;;;;;;;;;26.75;25.50;;;;;11.74;51.42;99981.47;6181079;28;97067;-64
2022/11/27 11:47:17;;;;;;;;;33.40;30.60;;;;;11.73;51.67;99972.53;6164209;28;99238;-65
2022/11/27 11:50:29;;;;;;;;;29.80;26.00;;;;;11.84;51.11;99971.09;6164308;28;96617;-64
2022/11/27 11:53:35;;;;;;;;;35.40;32.00;;;;;11.90;50.97;99973.00;6185084;28;96559;-65
2022/11/27 11:56:47;;;;;;;;;27.50;25.00;;;;;11.86;50.75;99971.75;6187336;28;98163;-63
2022/11/27 11:59:58;;;;;;;;;34.00;31.20;;;;;11.81;50.79;99951.78;6165204;28;98735;-65
2022/11/27 12:03:25;;;;;;;;;32.00;28.60;;;;;11.92;50.51;99972.81;6168489;28;96819;-64
2022/11/27 12:06:54;;;;;;;;;31.00;27.00;;;;;11.99;50.60;99968.22;6184145;28;98339;-63
2022/11/27 12:10:06;;;;;;;;;31.20;27.60;;;;;12.03;50.27;99961.38;6185318;28;96559;-64
2022/11/27 12:13:21;;;;;;;;;31.00;29.00;;;;;12.07;50.17;99966.16;6184792;28;96570;-63
2022/11/27 12:16:36;;;;;;;;;36.60;32.00;;;;;11.81;50.10;99906.66;6187744;28;96477;-64
2022/11/27 12:20:05;;;;;;;;;30.00;26.80;;;;;12.19;50.11;99960.16;6186104;28;96513;-64
2022/11/27 12:23:45;;;;;;;;;30.25;28.25;;;;;12.18;49.51;99956.63;6184022;28;96661;-64
2022/11/27 12:27:03;;;;;;;;;31.00;29.25;;;;;12.14;49.68;99950.78;6157539;28;97173;-63
2022/11/27 12:30:14;;;;;;;;;33.67;30.00;;;;;12.12;49.42;99954.72;6186716;28;96574;-63
2022/11/27 12:33:43;;;;;;;;;30.75;28.75;;;;;12.04;49.81;99944.97;6186505;28;96744;-63
2022/11/27 12:37:04;;;;;;;;;29.00;27.80;;;;;11.85;50.40;99939.50;6186943;28;96719;-63
2022/11/27 12:40:32;;;;;;;;;26.40;24.80;;;;;11.68;50.49;99955.22;6183862;28;96697;-63
2022/11/27 12:43:40;;;;;;;;;34.00;30.60;;;;;11.69;51.22;99948.78;6161247;28;97258;-63
2022/11/27 12:46:52;;;;;;;;;32.20;30.00;;;;;11.76;51.31;99949.69;6182699;28;96440;-64
2022/11/27 12:50:02;;;;;;;;;33.00;30.00;;;;;11.76;50.22;99955.09;6183785;28;96551;-64
2022/11/27 12:53:13;;;;;;;;;36.60;32.00;;;;;11.67;50.82;99954.41;6183433;28;96463;-64
2022/11/27 12:56:26;;;;;;;;;35.60;31.00;;;;;11.65;50.85;99955.63;6178959;28;96871;-65
2022/11/27 12:59:35;;;;;;;;;35.60;32.20;;;;;11.53;50.87;99933.75;6186683;28;96859;-64
2022/11/27 13:02:45;;;;;;;;;33.00;30.00;;;;;11.55;51.15;99947.91;6187078;28;96486;-64
2022/11/27 13:05:53;;;;;;;;;31.40;28.20;;;;;11.52;51.25;99929.41;6183308;28;97423;-63
2022/11/27 13:09:03;;;;;;;;;35.80;31.00;;;;;11.53;51.79;99941.06;6186644;28;96493;-65
2022/11/27 13:12:10;;;;;;;;;32.50;30.75;;;;;11.46;51.03;99929.38;6187376;28;97017;-65
2022/11/27 13:15:22;;;;;;;;;29.00;27.00;;;;;11.45;51.22;99933.13;6185611;28;96460;-63
2022/11/27 13:18:32;;;;;;;;;40.40;35.00;;;;;11.52;51.26;99924.03;6180771;28;96300;-64
2022/11/27 13:21:39;;;;;;;;;37.00;31.75;;;;;11.44;51.09;99926.88;6166090;28;97633;-63
2022/11/27 13:24:42;;;;;;;;;33.50;32.00;;;;;11.47;51.35;99929.19;6184044;28;96792;-64
2022/11/27 13:27:51;;;;;;;;;34.75;31.75;;;;;11.41;51.90;99930.00;6186202;28;96840;-64
2022/11/27 13:30:58;;;;;;;;;34.20;30.40;;;;;11.37;51.98;99930.59;6178946;28;96349;-65
2022/11/27 13:34:06;;;;;;;;;32.40;30.40;;;;;11.28;51.85;99936.19;6187535;28;96388;-64
2022/11/27 13:37:22;;;;;;;;;37.50;32.00;;;;;11.23;51.80;99929.72;6186746;28;96699;-64
2022/11/27 13:40:30;;;;;;;;;37.25;32.75;;;;;11.21;51.74;99929.91;6181854;28;96430;-64
2022/11/27 13:43:44;;;;;;;;;34.60;31.60;;;;;11.09;52.16;99918.00;6178170;28;96776;-64
2022/11/27 13:46:48;;;;;;;;;38.60;33.00;;;;;11.08;52.84;99924.44;6158995;28;96961;-63
2022/11/27 13:50:00;;;;;;;;;39.50;33.50;;;;;10.88;52.79;99914.56;6174234;28;97221;-64
2022/11/27 13:53:06;;;;;;;;;31.00;29.40;;;;;10.99;52.94;99936.44;6171875;28;97030;-64
2022/11/27 13:56:10;;;;;;;;;33.40;30.80;;;;;10.98;53.16;99929.38;6181615;28;96403;-64
2022/11/27 13:59:17;;;;;;;;;36.50;32.00;;;;;11.01;53.34;99926.25;6169115;28;96582;-63
2022/11/27 14:02:20;;;;;;;;;36.67;31.00;;;;;11.03;53.17;99928.78;6164064;28;96698;-65
2022/11/27 14:05:36;;;;;;;;;37.00;32.00;;;;;10.98;52.88;99923.97;6163021;28;96588;-65
2022/11/27 14:08:48;;;;;;;;;33.60;30.60;;;;;10.91;52.80;99925.78;6159962;28;96443;-64
2022/11/27 14:11:52;;;;;;;;;39.00;32.00;;;;;10.85;nan;99919.31;6170082;28;98215;-64
2022/11/27 14:15:09;;;;;;;;;32.50;29.00;;;;;10.86;52.99;99917.47;6171914;28;96331;-64
2022/11/27 14:18:18;;;;;;;;;34.80;31.40;;;;;10.85;52.98;99919.31;6168550;28;96358;-64